sensor_id;sensor_type;location;lat;lon;timestamp;pressure;altitude;pressure_sealevel;temperature;humidity
74181;BME280;62544;50.826;14.354;2022-12-16T00:00:09;98439.37;;;-5.75;83.07
74181;BME280;62544;50.826;14.354;2022-12-16T00:04:13;98436.65;;;-5.68;83.14
74181;BME280;62544;50.826;14.354;2022-12-16T00:08:17;98433.80;;;-5.63;83.09
74181;BME280;62544;50.826;14.354;2022-12-16T00:12:21;98428.92;;;-5.57;82.60
74181;BME280;62544;50.826;14.354;2022-12-16T00:16:25;98424.11;;;-5.53;83.32
74181;BME280;62544;50.826;14.354;2022-12-16T00:20:29;98418.56;;;-5.48;83.08
74181;BME280;62544;50.826;14.354;2022-12-16T00:24:33;98413.56;;;-5.44;83.46
74181;BME280;62544;50.826;14.354;2022-12-16T00:28:38;98406.71;;;-5.41;83.39
74181;BME280;62544;50.826;14.354;2022-12-16T00:32:41;98400.27;;;-5.36;83.11
74181;BME280;62544;50.826;14.354;2022-12-16T00:36:45;98392.64;;;-5.34;83.18
74181;BME280;62544;50.826;14.354;2022-12-16T00:40:49;98387.18;;;-5.35;84.09
74181;BME280;62544;50.826;14.354;2022-12-16T00:44:53;98384.09;;;-5.36;84.43
74181;BME280;62544;50.826;14.354;2022-12-16T00:48:57;98382.03;;;-5.37;84.62
74181;BME280;62544;50.826;14.354;2022-12-16T00:53:01;98379.41;;;-5.35;84.50
74181;BME280;62544;50.826;14.354;2022-12-16T00:57:05;98376.89;;;-5.32;84.10
74181;BME280;62544;50.826;14.354;2022-12-16T01:01:09;98373.43;;;-5.28;84.16
74181;BME280;62544;50.826;14.354;2022-12-16T01:05:14;98373.51;;;-5.25;84.32
74181;BME280;62544;50.826;14.354;2022-12-16T01:09:17;98373.61;;;-5.21;84.68
74181;BME280;62544;50.826;14.354;2022-12-16T01:13:22;98375.76;;;-5.15;84.13
74181;BME280;62544;50.826;14.354;2022-12-16T01:17:25;98374.95;;;-5.09;84.06
74181;BME280;62544;50.826;14.354;2022-12-16T01:21:29;98375.25;;;-5.04;83.63
74181;BME280;62544;50.826;14.354;2022-12-16T01:25:33;98375.53;;;-4.99;83.66
74181;BME280;62544;50.826;14.354;2022-12-16T01:29:37;98375.10;;;-4.96;83.60
74181;BME280;62544;50.826;14.354;2022-12-16T01:33:41;98375.17;;;-4.93;83.76
74181;BME280;62544;50.826;14.354;2022-12-16T01:37:45;98371.81;;;-4.91;83.80
74181;BME280;62544;50.826;14.354;2022-12-16T01:41:49;98367.66;;;-4.89;83.53
74181;BME280;62544;50.826;14.354;2022-12-16T01:45:55;98364.64;;;-4.86;83.73
74181;BME280;62544;50.826;14.354;2022-12-16T01:49:58;98360.49;;;-4.83;83.40
74181;BME280;62544;50.826;14.354;2022-12-16T01:54:17;98357.06;;;-4.81;83.67
74181;BME280;62544;50.826;14.354;2022-12-16T01:58:10;98354.52;;;-4.79;83.85
74181;BME280;62544;50.826;14.354;2022-12-16T02:02:09;98352.43;;;-4.77;83.68
74181;BME280;62544;50.826;14.354;2022-12-16T02:06:13;98349.63;;;-4.77;83.90
74181;BME280;62544;50.826;14.354;2022-12-16T02:10:17;98346.30;;;-4.80;84.58
74181;BME280;62544;50.826;14.354;2022-12-16T02:18:31;98338.58;;;-4.89;85.64
74181;BME280;62544;50.826;14.354;2022-12-16T02:38:51;98317.13;;;-5.13;88.66
74181;BME280;62544;50.826;14.354;2022-12-16T02:42:50;98313.64;;;-5.10;87.71
74181;BME280;62544;50.826;14.354;2022-12-16T02:46:54;98310.61;;;-5.01;87.05
74181;BME280;62544;50.826;14.354;2022-12-16T02:50:57;98306.80;;;-4.94;87.01
74181;BME280;62544;50.826;14.354;2022-12-16T02:55:02;98303.55;;;-4.98;89.30
74181;BME280;62544;50.826;14.354;2022-12-16T02:59:16;98300.94;;;-4.99;89.14
74181;BME280;62544;50.826;14.354;2022-12-16T03:03:29;98296.98;;;-4.99;89.31
74181;BME280;62544;50.826;14.354;2022-12-16T03:07:13;98291.36;;;-4.97;89.28
74181;BME280;62544;50.826;14.354;2022-12-16T03:11:17;98286.19;;;-4.89;88.54
74181;BME280;62544;50.826;14.354;2022-12-16T03:15:22;98277.36;;;-4.81;87.98
74181;BME280;62544;50.826;14.354;2022-12-16T03:19:25;98271.48;;;-4.75;88.14
74181;BME280;62544;50.826;14.354;2022-12-16T03:23:36;98268.56;;;-4.64;87.45
74181;BME280;62544;50.826;14.354;2022-12-16T03:27:37;98265.59;;;-4.47;85.12
74181;BME280;62544;50.826;14.354;2022-12-16T03:31:59;98264.14;;;-4.29;84.10
74181;BME280;62544;50.826;14.354;2022-12-16T03:35:47;98261.99;;;-4.15;84.47
74181;BME280;62544;50.826;14.354;2022-12-16T03:39:49;98259.09;;;-4.03;84.21
74181;BME280;62544;50.826;14.354;2022-12-16T03:43:49;98255.38;;;-3.95;83.52
74181;BME280;62544;50.826;14.354;2022-12-16T03:47:55;98251.85;;;-3.87;82.48
74181;BME280;62544;50.826;14.354;2022-12-16T03:51:57;98248.61;;;-3.78;80.64
74181;BME280;62544;50.826;14.354;2022-12-16T03:56:01;98247.41;;;-3.72;80.96
74181;BME280;62544;50.826;14.354;2022-12-16T04:00:05;98249.15;;;-3.64;80.11
74181;BME280;62544;50.826;14.354;2022-12-16T04:04:09;98252.92;;;-3.52;79.80
74181;BME280;62544;50.826;14.354;2022-12-16T04:08:13;98257.93;;;-3.37;78.57
74181;BME280;62544;50.826;14.354;2022-12-16T04:12:17;98265.40;;;-3.21;78.56
74181;BME280;62544;50.826;14.354;2022-12-16T04:16:21;98270.73;;;-3.07;79.53
74181;BME280;62544;50.826;14.354;2022-12-16T04:20:27;98275.51;;;-2.97;79.34
74181;BME280;62544;50.826;14.354;2022-12-16T04:24:29;98278.97;;;-2.88;78.13
74181;BME280;62544;50.826;14.354;2022-12-16T04:28:33;98282.05;;;-2.84;80.18
74181;BME280;62544;50.826;14.354;2022-12-16T04:32:37;98285.86;;;-2.79;80.38
74181;BME280;62544;50.826;14.354;2022-12-16T04:36:41;98288.95;;;-2.78;81.26
74181;BME280;62544;50.826;14.354;2022-12-16T04:40:45;98291.79;;;-2.78;81.35
74181;BME280;62544;50.826;14.354;2022-12-16T04:44:49;98294.80;;;-2.77;81.19
74181;BME280;62544;50.826;14.354;2022-12-16T04:48:53;98299.70;;;-2.76;81.02
74181;BME280;62544;50.826;14.354;2022-12-16T04:52:57;98303.90;;;-2.78;80.82
74181;BME280;62544;50.826;14.354;2022-12-16T04:57:01;98311.13;;;-2.79;81.40
74181;BME280;62544;50.826;14.354;2022-12-16T05:01:05;98317.31;;;-2.78;80.59
74181;BME280;62544;50.826;14.354;2022-12-16T05:05:09;98323.92;;;-2.75;79.25
74181;BME280;62544;50.826;14.354;2022-12-16T05:09:13;98329.36;;;-2.72;77.03
74181;BME280;62544;50.826;14.354;2022-12-16T05:13:17;98333.95;;;-2.68;75.78
74181;BME280;62544;50.826;14.354;2022-12-16T05:17:21;98336.21;;;-2.63;76.23
74181;BME280;62544;50.826;14.354;2022-12-16T05:21:25;98336.25;;;-2.61;77.13
74181;BME280;62544;50.826;14.354;2022-12-16T05:25:29;98336.39;;;-2.68;81.13
74181;BME280;62544;50.826;14.354;2022-12-16T05:29:33;98338.20;;;-2.82;83.04
74181;BME280;62544;50.826;14.354;2022-12-16T05:33:37;98337.41;;;-2.98;84.50
74181;BME280;62544;50.826;14.354;2022-12-16T05:37:41;98335.88;;;-3.08;84.06
74181;BME280;62544;50.826;14.354;2022-12-16T05:41:45;98334.09;;;-3.12;82.67
74181;BME280;62544;50.826;14.354;2022-12-16T05:45:49;98332.79;;;-3.14;83.03
74181;BME280;62544;50.826;14.354;2022-12-16T05:49:53;98331.58;;;-3.17;83.67
74181;BME280;62544;50.826;14.354;2022-12-16T05:53:57;98331.46;;;-3.19;84.52
74181;BME280;62544;50.826;14.354;2022-12-16T05:58:01;98332.23;;;-3.18;83.08
74181;BME280;62544;50.826;14.354;2022-12-16T06:02:05;98332.87;;;-3.13;81.98
74181;BME280;62544;50.826;14.354;2022-12-16T06:06:09;98333.69;;;-3.07;79.51
74181;BME280;62544;50.826;14.354;2022-12-16T06:10:13;98335.46;;;-2.98;81.09
74181;BME280;62544;50.826;14.354;2022-12-16T06:14:17;98336.83;;;-2.94;81.33
74181;BME280;62544;50.826;14.354;2022-12-16T06:18:21;98338.98;;;-2.90;81.68
74181;BME280;62544;50.826;14.354;2022-12-16T06:22:25;98340.52;;;-2.86;81.45
74181;BME280;62544;50.826;14.354;2022-12-16T06:26:29;98343.08;;;-2.83;80.17
74181;BME280;62544;50.826;14.354;2022-12-16T06:30:33;98346.56;;;-2.78;79.98
74181;BME280;62544;50.826;14.354;2022-12-16T06:34:37;98352.08;;;-2.73;79.47
74181;BME280;62544;50.826;14.354;2022-12-16T06:38:41;98355.16;;;-2.69;79.41
74181;BME280;62544;50.826;14.354;2022-12-16T06:42:45;98357.64;;;-2.66;79.47
74181;BME280;62544;50.826;14.354;2022-12-16T06:46:49;98361.70;;;-2.66;79.61
74181;BME280;62544;50.826;14.354;2022-12-16T06:50:53;98366.65;;;-2.61;79.20
74181;BME280;62544;50.826;14.354;2022-12-16T06:54:57;98370.65;;;-2.54;78.76
74181;BME280;62544;50.826;14.354;2022-12-16T06:59:01;98377.47;;;-2.49;79.14
74181;BME280;62544;50.826;14.354;2022-12-16T07:03:05;98382.79;;;-2.46;79.52
74181;BME280;62544;50.826;14.354;2022-12-16T07:07:09;98387.02;;;-2.46;79.60
74181;BME280;62544;50.826;14.354;2022-12-16T07:11:13;98391.47;;;-2.48;80.87
74181;BME280;62544;50.826;14.354;2022-12-16T07:15:17;98394.23;;;-2.54;82.26
74181;BME280;62544;50.826;14.354;2022-12-16T07:19:21;98396.73;;;-2.61;82.37
74181;BME280;62544;50.826;14.354;2022-12-16T07:23:25;98399.75;;;-2.66;82.87
74181;BME280;62544;50.826;14.354;2022-12-16T07:27:29;98404.42;;;-2.68;82.49
74181;BME280;62544;50.826;14.354;2022-12-16T07:31:33;98411.17;;;-2.68;82.52
74181;BME280;62544;50.826;14.354;2022-12-16T07:35:37;98416.86;;;-2.62;81.68
74181;BME280;62544;50.826;14.354;2022-12-16T07:39:41;98423.55;;;-2.55;81.37
74181;BME280;62544;50.826;14.354;2022-12-16T07:43:45;98429.32;;;-2.51;81.79
74181;BME280;62544;50.826;14.354;2022-12-16T07:47:49;98435.16;;;-2.45;81.35
74181;BME280;62544;50.826;14.354;2022-12-16T07:51:53;98442.07;;;-2.41;81.27
74181;BME280;62544;50.826;14.354;2022-12-16T07:55:57;98449.06;;;-2.41;81.75
74181;BME280;62544;50.826;14.354;2022-12-16T08:00:01;98455.61;;;-2.43;82.49
74181;BME280;62544;50.826;14.354;2022-12-16T08:04:05;98461.18;;;-2.42;82.01
74181;BME280;62544;50.826;14.354;2022-12-16T08:08:09;98467.24;;;-2.38;81.42
74181;BME280;62544;50.826;14.354;2022-12-16T08:12:13;98473.86;;;-2.30;80.84
74181;BME280;62544;50.826;14.354;2022-12-16T08:16:17;98480.71;;;-2.24;80.69
74181;BME280;62544;50.826;14.354;2022-12-16T08:20:21;98487.34;;;-2.21;80.81
74181;BME280;62544;50.826;14.354;2022-12-16T08:24:25;98494.20;;;-2.13;80.25
74181;BME280;62544;50.826;14.354;2022-12-16T08:28:29;98497.92;;;-2.03;78.43
74181;BME280;62544;50.826;14.354;2022-12-16T08:32:33;98502.86;;;-1.93;78.88
74181;BME280;62544;50.826;14.354;2022-12-16T08:36:37;98507.75;;;-1.82;78.36
74181;BME280;62544;50.826;14.354;2022-12-16T08:40:42;98511.77;;;-1.74;77.81
74181;BME280;62544;50.826;14.354;2022-12-16T08:44:45;98515.61;;;-1.67;77.30
74181;BME280;62544;50.826;14.354;2022-12-16T08:48:49;98518.92;;;-1.62;77.28
74181;BME280;62544;50.826;14.354;2022-12-16T08:52:53;98522.88;;;-1.60;78.29
74181;BME280;62544;50.826;14.354;2022-12-16T08:56:57;98527.03;;;-1.60;78.30
74181;BME280;62544;50.826;14.354;2022-12-16T09:01:01;98530.86;;;-1.52;76.96
74181;BME280;62544;50.826;14.354;2022-12-16T09:05:05;98534.01;;;-1.46;77.09
74181;BME280;62544;50.826;14.354;2022-12-16T09:09:09;98539.04;;;-1.42;76.93
74181;BME280;62544;50.826;14.354;2022-12-16T09:13:13;98542.89;;;-1.35;77.02
74181;BME280;62544;50.826;14.354;2022-12-16T09:17:17;98545.76;;;-1.21;75.79
74181;BME280;62544;50.826;14.354;2022-12-16T09:21:21;98548.60;;;-1.01;74.21
74181;BME280;62544;50.826;14.354;2022-12-16T09:25:25;98551.17;;;-0.80;73.49
74181;BME280;62544;50.826;14.354;2022-12-16T09:29:29;98553.70;;;-0.63;73.30
74181;BME280;62544;50.826;14.354;2022-12-16T09:33:33;98556.68;;;-0.51;73.48
74181;BME280;62544;50.826;14.354;2022-12-16T09:37:37;98559.23;;;-0.49;75.32
74181;BME280;62544;50.826;14.354;2022-12-16T09:41:41;98560.74;;;-0.53;77.14
74181;BME280;62544;50.826;14.354;2022-12-16T09:49:49;98564.65;;;-0.37;75.90
74181;BME280;62544;50.826;14.354;2022-12-16T09:53:53;98565.45;;;-0.19;73.42
74181;BME280;62544;50.826;14.354;2022-12-16T09:57:57;98565.79;;;0.03;72.50
74181;BME280;62544;50.826;14.354;2022-12-16T10:02:01;98565.93;;;0.14;73.08
74181;BME280;62544;50.826;14.354;2022-12-16T10:10:20;98563.56;;;0.14;73.94
74181;BME280;62544;50.826;14.354;2022-12-16T10:14:15;98563.19;;;0.15;74.49
74181;BME280;62544;50.826;14.354;2022-12-16T10:18:25;98561.94;;;0.26;72.64
74181;BME280;62544;50.826;14.354;2022-12-16T10:22:28;98560.88;;;0.40;71.24
74181;BME280;62544;50.826;14.354;2022-12-16T10:26:27;98561.02;;;0.47;72.13
74181;BME280;62544;50.826;14.354;2022-12-16T10:30:29;98561.61;;;0.57;70.91
74181;BME280;62544;50.826;14.354;2022-12-16T10:34:33;98562.09;;;0.67;69.90
74181;BME280;62544;50.826;14.354;2022-12-16T10:38:38;98563.30;;;0.62;72.76
74181;BME280;62544;50.826;14.354;2022-12-16T10:42:44;98565.79;;;0.59;73.40
74181;BME280;62544;50.826;14.354;2022-12-16T10:46:45;98569.05;;;0.73;70.16
74181;BME280;62544;50.826;14.354;2022-12-16T10:50:49;98573.99;;;1.01;66.71
74181;BME280;62544;50.826;14.354;2022-12-16T10:58:57;98581.59;;;1.53;66.08
74181;BME280;62544;50.826;14.354;2022-12-16T11:07:10;98584.00;;;1.86;65.32
74181;BME280;62544;50.826;14.354;2022-12-16T11:11:13;98584.33;;;1.91;65.92
74181;BME280;62544;50.826;14.354;2022-12-16T11:15:23;98584.97;;;1.82;67.71
74181;BME280;62544;50.826;14.354;2022-12-16T11:23:24;98585.37;;;1.70;67.02
74181;BME280;62544;50.826;14.354;2022-12-16T11:27:25;98587.11;;;1.71;66.19
74181;BME280;62544;50.826;14.354;2022-12-16T11:31:29;98588.32;;;1.75;65.93
74181;BME280;62544;50.826;14.354;2022-12-16T11:35:33;98588.89;;;1.85;64.25
74181;BME280;62544;50.826;14.354;2022-12-16T11:39:37;98590.07;;;1.98;63.82
74181;BME280;62544;50.826;14.354;2022-12-16T11:43:41;98592.36;;;2.06;63.25
74181;BME280;62544;50.826;14.354;2022-12-16T11:47:47;98594.89;;;1.94;65.40
74181;BME280;62544;50.826;14.354;2022-12-16T11:51:56;98597.57;;;1.69;67.71
74181;BME280;62544;50.826;14.354;2022-12-16T11:55:53;98601.20;;;1.48;67.25
74181;BME280;62544;50.826;14.354;2022-12-16T11:59:57;98606.81;;;1.24;68.19
74181;BME280;62544;50.826;14.354;2022-12-16T12:04:01;98612.45;;;1.05;69.13
74181;BME280;62544;50.826;14.354;2022-12-16T12:08:11;98616.17;;;0.94;68.89
74181;BME280;62544;50.826;14.354;2022-12-16T12:12:13;98619.98;;;0.91;67.45
74181;BME280;62544;50.826;14.354;2022-12-16T12:20:34;98628.70;;;0.83;68.07
74181;BME280;62544;50.826;14.354;2022-12-16T12:24:27;98634.00;;;0.77;68.37
74181;BME280;62544;50.826;14.354;2022-12-16T12:32:35;98645.39;;;0.34;70.94
74181;BME280;62544;50.826;14.354;2022-12-16T12:40:41;98658.43;;;-0.09;73.30
74181;BME280;62544;50.826;14.354;2022-12-16T12:44:50;98664.08;;;-0.22;72.41
74181;BME280;62544;50.826;14.354;2022-12-16T12:52:55;98673.50;;;-0.36;71.88
74181;BME280;62544;50.826;14.354;2022-12-16T12:56:53;98678.26;;;-0.48;72.82
74181;BME280;62544;50.826;14.354;2022-12-16T13:00:57;98681.55;;;-0.61;72.34
74181;BME280;62544;50.826;14.354;2022-12-16T13:05:01;98685.57;;;-0.74;73.25
74181;BME280;62544;50.826;14.354;2022-12-16T13:17:13;98696.12;;;-0.82;71.33
74181;BME280;62544;50.826;14.354;2022-12-16T13:25:31;98701.79;;;-0.86;71.84
74181;BME280;62544;50.826;14.354;2022-12-16T13:29:29;98706.78;;;-0.89;71.97
74181;BME280;62544;50.826;14.354;2022-12-16T13:33:29;98711.10;;;-0.91;72.01
74181;BME280;62544;50.826;14.354;2022-12-16T13:37:33;98714.29;;;-0.95;72.19
74181;BME280;62544;50.826;14.354;2022-12-16T13:45:42;98724.43;;;-1.06;72.14
74181;BME280;62544;50.826;14.354;2022-12-16T13:49:46;98730.72;;;-1.09;72.23
74181;BME280;62544;50.826;14.354;2022-12-16T13:53:50;98737.66;;;-1.15;72.24
74181;BME280;62544;50.826;14.354;2022-12-16T13:57:53;98742.71;;;-1.20;72.68
74181;BME280;62544;50.826;14.354;2022-12-16T14:02:00;98749.61;;;-1.28;73.59
74181;BME280;62544;50.826;14.354;2022-12-16T14:06:03;98758.33;;;-1.33;73.07
74181;BME280;62544;50.826;14.354;2022-12-16T14:10:05;98764.98;;;-1.35;73.09
74181;BME280;62544;50.826;14.354;2022-12-16T14:18:23;98776.99;;;-1.46;74.09
74181;BME280;62544;50.826;14.354;2022-12-16T14:26:22;98789.94;;;-1.57;74.60
74181;BME280;62544;50.826;14.354;2022-12-16T14:30:26;98795.36;;;-1.54;74.13
74181;BME280;62544;50.826;14.354;2022-12-16T14:34:32;98799.43;;;-1.54;75.11
74181;BME280;62544;50.826;14.354;2022-12-16T14:38:34;98804.40;;;-1.54;74.65
74181;BME280;62544;50.826;14.354;2022-12-16T14:42:38;98810.47;;;-1.52;74.57
74181;BME280;62544;50.826;14.354;2022-12-16T14:46:42;98815.14;;;-1.59;76.45
74181;BME280;62544;50.826;14.354;2022-12-16T14:50:46;98818.92;;;-1.66;76.51
74181;BME280;62544;50.826;14.354;2022-12-16T14:54:50;98823.44;;;-1.68;76.62
74181;BME280;62544;50.826;14.354;2022-12-16T14:59:11;98829.61;;;-1.70;76.66
74181;BME280;62544;50.826;14.354;2022-12-16T15:07:02;98844.67;;;-1.74;76.45
74181;BME280;62544;50.826;14.354;2022-12-16T15:11:06;98851.34;;;-1.78;77.17
74181;BME280;62544;50.826;14.354;2022-12-16T15:15:13;98858.50;;;-1.79;76.53
74181;BME280;62544;50.826;14.354;2022-12-16T15:19:19;98865.78;;;-1.82;77.05
74181;BME280;62544;50.826;14.354;2022-12-16T15:23:22;98874.19;;;-1.85;77.78
74181;BME280;62544;50.826;14.354;2022-12-16T15:27:25;98881.04;;;-1.84;77.02
74181;BME280;62544;50.826;14.354;2022-12-16T15:31:29;98887.76;;;-1.82;77.01
74181;BME280;62544;50.826;14.354;2022-12-16T15:35:34;98892.85;;;-1.80;77.06
74181;BME280;62544;50.826;14.354;2022-12-16T15:39:36;98897.52;;;-1.87;78.70
74181;BME280;62544;50.826;14.354;2022-12-16T15:43:38;98900.58;;;-1.92;78.48
74181;BME280;62544;50.826;14.354;2022-12-16T15:47:42;98903.83;;;-1.96;78.29
74181;BME280;62544;50.826;14.354;2022-12-16T15:51:46;98907.97;;;-1.97;78.18
74181;BME280;62544;50.826;14.354;2022-12-16T15:55:53;98912.86;;;-1.97;78.16
74181;BME280;62544;50.826;14.354;2022-12-16T15:59:58;98918.03;;;-1.95;77.79
74181;BME280;62544;50.826;14.354;2022-12-16T16:03:58;98923.29;;;-1.93;78.04
74181;BME280;62544;50.826;14.354;2022-12-16T16:08:02;98929.02;;;-1.95;78.17
74181;BME280;62544;50.826;14.354;2022-12-16T16:12:09;98934.86;;;-1.99;78.59
74181;BME280;62544;50.826;14.354;2022-12-16T16:16:10;98940.02;;;-2.09;80.19
74181;BME280;62544;50.826;14.354;2022-12-16T16:20:14;98944.87;;;-2.14;79.83
74181;BME280;62544;50.826;14.354;2022-12-16T16:24:17;98949.95;;;-2.16;79.40
74181;BME280;62544;50.826;14.354;2022-12-16T16:28:22;98955.16;;;-2.16;78.88
74181;BME280;62544;50.826;14.354;2022-12-16T16:32:25;98962.70;;;-2.21;79.87
74181;BME280;62544;50.826;14.354;2022-12-16T16:36:29;98969.64;;;-2.23;79.81
74181;BME280;62544;50.826;14.354;2022-12-16T16:40:35;98974.76;;;-2.24;79.40
74181;BME280;62544;50.826;14.354;2022-12-16T16:44:37;98980.52;;;-2.20;78.75
74181;BME280;62544;50.826;14.354;2022-12-16T16:48:41;98985.91;;;-2.17;78.60
74181;BME280;62544;50.826;14.354;2022-12-16T16:52:46;98990.72;;;-2.16;78.75
74181;BME280;62544;50.826;14.354;2022-12-16T16:56:50;98995.35;;;-2.16;78.78
74181;BME280;62544;50.826;14.354;2022-12-16T17:00:54;99000.59;;;-2.19;79.15
74181;BME280;62544;50.826;14.354;2022-12-16T17:04:58;99005.53;;;-2.20;79.01
74181;BME280;62544;50.826;14.354;2022-12-16T17:09:02;99010.30;;;-2.21;78.82
74181;BME280;62544;50.826;14.354;2022-12-16T17:13:06;99016.60;;;-2.20;78.68
74181;BME280;62544;50.826;14.354;2022-12-16T17:17:10;99022.94;;;-2.20;78.17
74181;BME280;62544;50.826;14.354;2022-12-16T17:21:14;99027.95;;;-2.25;79.64
74181;BME280;62544;50.826;14.354;2022-12-16T17:25:18;99032.15;;;-2.30;79.71
74181;BME280;62544;50.826;14.354;2022-12-16T17:29:22;99037.36;;;-2.40;80.76
74181;BME280;62544;50.826;14.354;2022-12-16T17:33:25;99041.92;;;-2.45;80.68
74181;BME280;62544;50.826;14.354;2022-12-16T17:37:30;99048.25;;;-2.46;80.01
74181;BME280;62544;50.826;14.354;2022-12-16T17:41:34;99055.74;;;-2.46;79.81
74181;BME280;62544;50.826;14.354;2022-12-16T17:45:39;99060.19;;;-2.44;79.32
74181;BME280;62544;50.826;14.354;2022-12-16T17:49:42;99064.61;;;-2.45;78.71
74181;BME280;62544;50.826;14.354;2022-12-16T17:53:46;99070.97;;;-2.52;80.06
74181;BME280;62544;50.826;14.354;2022-12-16T17:57:49;99077.08;;;-2.60;80.21
74181;BME280;62544;50.826;14.354;2022-12-16T18:01:54;99080.88;;;-2.67;79.89
74181;BME280;62544;50.826;14.354;2022-12-16T18:05:58;99084.53;;;-2.74;80.20
74181;BME280;62544;50.826;14.354;2022-12-16T18:10:02;99087.80;;;-2.85;81.13
74181;BME280;62544;50.826;14.354;2022-12-16T18:14:06;99092.61;;;-2.90;80.77
74181;BME280;62544;50.826;14.354;2022-12-16T18:18:09;99096.22;;;-2.95;80.57
74181;BME280;62544;50.826;14.354;2022-12-16T18:22:16;99102.50;;;-3.01;81.00
74181;BME280;62544;50.826;14.354;2022-12-16T18:26:17;99108.47;;;-3.07;80.85
74181;BME280;62544;50.826;14.354;2022-12-16T18:30:23;99113.67;;;-3.14;81.03
74181;BME280;62544;50.826;14.354;2022-12-16T18:34:26;99118.59;;;-3.17;81.07
74181;BME280;62544;50.826;14.354;2022-12-16T18:38:29;99123.71;;;-3.20;80.23
74181;BME280;62544;50.826;14.354;2022-12-16T18:42:34;99129.02;;;-3.22;80.40
74181;BME280;62544;50.826;14.354;2022-12-16T18:46:37;99134.44;;;-3.23;80.51
74181;BME280;62544;50.826;14.354;2022-12-16T18:50:41;99140.05;;;-3.23;80.38
74181;BME280;62544;50.826;14.354;2022-12-16T18:54:45;99143.80;;;-3.22;80.16
74181;BME280;62544;50.826;14.354;2022-12-16T18:58:50;99147.09;;;-3.21;79.91
74181;BME280;62544;50.826;14.354;2022-12-16T19:02:53;99149.30;;;-3.20;79.88
74181;BME280;62544;50.826;14.354;2022-12-16T19:06:57;99151.36;;;-3.21;80.28
74181;BME280;62544;50.826;14.354;2022-12-16T19:11:01;99153.06;;;-3.24;80.44
74181;BME280;62544;50.826;14.354;2022-12-16T19:15:06;99155.66;;;-3.25;79.89
74181;BME280;62544;50.826;14.354;2022-12-16T19:19:09;99157.86;;;-3.30;80.96
74181;BME280;62544;50.826;14.354;2022-12-16T19:23:13;99161.33;;;-3.31;80.73
74181;BME280;62544;50.826;14.354;2022-12-16T19:27:17;99165.42;;;-3.30;80.18
74181;BME280;62544;50.826;14.354;2022-12-16T19:31:21;99168.50;;;-3.32;80.58
74181;BME280;62544;50.826;14.354;2022-12-16T19:35:25;99171.30;;;-3.37;81.38
74181;BME280;62544;50.826;14.354;2022-12-16T19:39:31;99175.48;;;-3.39;81.23
74181;BME280;62544;50.826;14.354;2022-12-16T19:43:33;99180.36;;;-3.38;80.87
74181;BME280;62544;50.826;14.354;2022-12-16T19:47:37;99185.25;;;-3.37;81.00
74181;BME280;62544;50.826;14.354;2022-12-16T19:51:41;99188.19;;;-3.39;81.13
74181;BME280;62544;50.826;14.354;2022-12-16T19:55:53;99190.62;;;-3.45;81.83
74181;BME280;62544;50.826;14.354;2022-12-16T19:59:52;99194.45;;;-3.47;81.63
74181;BME280;62544;50.826;14.354;2022-12-16T20:03:53;99198.41;;;-3.45;81.52
74181;BME280;62544;50.826;14.354;2022-12-16T20:07:57;99202.29;;;-3.40;80.42
74181;BME280;62544;50.826;14.354;2022-12-16T20:12:01;99205.53;;;-3.39;80.78
74181;BME280;62544;50.826;14.354;2022-12-16T20:16:06;99209.77;;;-3.40;81.41
74181;BME280;62544;50.826;14.354;2022-12-16T20:20:09;99214.59;;;-3.41;81.37
74181;BME280;62544;50.826;14.354;2022-12-16T20:24:13;99218.40;;;-3.42;81.47
74181;BME280;62544;50.826;14.354;2022-12-16T20:28:17;99222.94;;;-3.42;81.56
74181;BME280;62544;50.826;14.354;2022-12-16T20:32:21;99227.81;;;-3.45;81.85
74181;BME280;62544;50.826;14.354;2022-12-16T20:36:25;99232.44;;;-3.50;82.55
74181;BME280;62544;50.826;14.354;2022-12-16T20:40:29;99237.30;;;-3.53;82.44
74181;BME280;62544;50.826;14.354;2022-12-16T20:44:33;99242.91;;;-3.53;82.31
74181;BME280;62544;50.826;14.354;2022-12-16T20:48:37;99249.27;;;-3.51;82.24
74181;BME280;62544;50.826;14.354;2022-12-16T20:52:41;99255.65;;;-3.53;82.66
74181;BME280;62544;50.826;14.354;2022-12-16T20:56:45;99262.57;;;-3.62;83.87
74181;BME280;62544;50.826;14.354;2022-12-16T21:00:50;99268.75;;;-3.69;83.78
74181;BME280;62544;50.826;14.354;2022-12-16T21:04:53;99275.23;;;-3.72;83.32
74181;BME280;62544;50.826;14.354;2022-12-16T21:08:57;99280.42;;;-3.72;83.38
74181;BME280;62544;50.826;14.354;2022-12-16T21:13:08;99285.36;;;-3.70;83.22
74181;BME280;62544;50.826;14.354;2022-12-16T21:17:05;99291.40;;;-3.69;82.85
74181;BME280;62544;50.826;14.354;2022-12-16T21:21:09;99296.91;;;-3.72;83.74
74181;BME280;62544;50.826;14.354;2022-12-16T21:25:13;99302.83;;;-3.72;83.50
74181;BME280;62544;50.826;14.354;2022-12-16T21:29:17;99308.94;;;-3.73;83.79
74181;BME280;62544;50.826;14.354;2022-12-16T21:33:21;99315.06;;;-3.75;83.76
74181;BME280;62544;50.826;14.354;2022-12-16T21:37:25;99321.17;;;-3.76;83.89
74181;BME280;62544;50.826;14.354;2022-12-16T21:41:29;99326.93;;;-3.74;83.65
74181;BME280;62544;50.826;14.354;2022-12-16T21:45:33;99332.14;;;-3.72;83.62
74181;BME280;62544;50.826;14.354;2022-12-16T21:49:37;99335.97;;;-3.69;83.13
74181;BME280;62544;50.826;14.354;2022-12-16T21:53:41;99339.90;;;-3.66;82.87
74181;BME280;62544;50.826;14.354;2022-12-16T21:57:45;99344.54;;;-3.65;83.29
74181;BME280;62544;50.826;14.354;2022-12-16T22:01:49;99350.06;;;-3.67;83.48
74181;BME280;62544;50.826;14.354;2022-12-16T22:05:56;99355.81;;;-3.73;84.57
74181;BME280;62544;50.826;14.354;2022-12-16T22:09:57;99361.66;;;-3.75;84.62
74181;BME280;62544;50.826;14.354;2022-12-16T22:14:01;99366.75;;;-3.78;84.78
74181;BME280;62544;50.826;14.354;2022-12-16T22:18:05;99372.03;;;-3.78;83.74
74181;BME280;62544;50.826;14.354;2022-12-16T22:22:09;99376.26;;;-3.75;83.58
74181;BME280;62544;50.826;14.354;2022-12-16T22:26:13;99379.94;;;-3.70;82.81
74181;BME280;62544;50.826;14.354;2022-12-16T22:30:17;99382.54;;;-3.67;83.14
74181;BME280;62544;50.826;14.354;2022-12-16T22:34:22;99386.17;;;-3.66;83.54
74181;BME280;62544;50.826;14.354;2022-12-16T22:38:25;99388.46;;;-3.65;83.37